Time;durP1;ratioP1;P1;durP2;ratioP2;P2;SDS_P1;SDS_P2;PMS_P1;PMS_P2;Temp;Humidity;BMP_temperature;BMP_pressure;BME280_temperature;BME280_humidity;BME280_pressure;Samples;Min_cycle;Max_cycle;Signal;HPM_P1;HPM_P2
2022/05/24 00:01:50;;;;;;;5.28;2.72;;;;;;;;;;5108934;28;20020;-68
2022/05/24 00:04:15;;;;;;;6.78;2.55;;;;;;;;;;5109168;28;20028;-68
2022/05/24 00:06:40;;;;;;;4.95;2.72;;;;;;;;;;5105020;28;20043;-68
2022/05/24 00:09:06;;;;;;;9.27;2.88;;;;;;;;;;5105587;28;20042;-68
2022/05/24 00:11:31;;;;;;;5.28;2.47;;;;;;;;;;5114828;28;20455;-68
2022/05/24 00:13:57;;;;;;;4.95;2.63;;;;;;;;;;5099836;28;20085;-68
2022/05/24 00:16:22;;;;;;;5.80;2.88;;;;;;;;;;5112898;28;20045;-68
2022/05/24 00:18:47;;;;;;;4.18;2.38;;;;;;;;;;5102593;28;20016;-68
2022/05/24 00:21:12;;;;;;;10.05;3.10;;;;;;;;;;5101180;28;20024;-68
2022/05/24 00:23:38;;;;;;;7.28;2.20;;;;;;;;;;5109860;28;20114;-68
2022/05/24 00:26:05;;;;;;;6.78;2.20;;;;;;;;;;5106629;28;20459;-68
2022/05/24 00:28:31;;;;;;;4.53;2.30;;;;;;;;;;5112022;28;20374;-68
2022/05/24 00:30:57;;;;;;;4.50;2.10;;;;;;;;;;5105428;28;20020;-68
2022/05/24 00:33:22;;;;;;;4.60;2.40;;;;;;;;;;5108260;28;20095;-68
2022/05/24 00:35:47;;;;;;;7.35;2.05;;;;;;;;;;5105549;28;20101;-68
2022/05/24 00:38:16;;;;;;;7.15;1.80;;;;;;;;;;5108484;28;20156;-68
2022/05/24 00:40:44;;;;;;;3.72;1.40;;;;;;;;;;5108148;28;20070;-68
2022/05/24 00:43:16;;;;;;;3.70;1.50;;;;;;;;;;5103536;28;20047;-68
2022/05/24 00:45:45;;;;;;;3.00;1.42;;;;;;;;;;5102610;28;20489;-68
2022/05/24 00:48:18;;;;;;;2.45;1.20;;;;;;;;;;5110318;28;20043;-68
2022/05/24 00:50:47;;;;;;;5.22;1.67;;;;;;;;;;5106686;28;20031;-68
2022/05/24 00:53:16;;;;;;;3.45;1.45;;;;;;;;;;5107688;28;20032;-68
2022/05/24 00:55:46;;;;;;;3.95;1.33;;;;;;;;;;5106381;28;20344;-68
2022/05/24 00:58:16;;;;;;;7.13;1.40;;;;;;;;;;5099015;28;20024;-68
2022/05/24 01:00:41;;;;;;;4.65;1.55;;;;;;;;;;5113990;28;20112;-68
2022/05/24 01:03:07;;;;;;;4.45;1.52;;;;;;;;;;5098621;28;20133;-68
2022/05/24 01:05:32;;;;;;;3.97;1.58;;;;;;;;;;5106349;28;20044;-68
2022/05/24 01:07:58;;;;;;;2.95;1.60;;;;;;;;;;5107092;28;20060;-68
2022/05/24 01:10:29;;;;;;;4.65;1.40;;;;;;;;;;5107716;28;20089;-68
2022/05/24 01:12:59;;;;;;;5.85;1.40;;;;;;;;;;5105276;28;20098;-68
2022/05/24 01:15:25;;;;;;;6.28;1.75;;;;;;;;;;5102435;28;20020;-68
2022/05/24 01:17:51;;;;;;;3.67;1.35;;;;;;;;;;5104559;28;20097;-68
2022/05/24 01:20:17;;;;;;;8.60;1.60;;;;;;;;;;5104320;28;20475;-68
2022/05/24 01:22:52;;;;;;;7.85;1.45;;;;;;;;;;5103746;28;20033;-68
2022/05/24 01:25:43;;;;;;;2.80;1.20;;;;;;;;;;5105201;28;20032;-68
2022/05/24 01:28:14;;;;;;;2.80;1.27;;;;;;;;;;5065841;28;20040;-68
2022/05/24 01:30:40;;;;;;;2.45;1.38;;;;;;;;;;5106514;28;20015;-68
2022/05/24 01:38:33;;;;;;;2.58;1.40;;;;;;;;;;5098923;28;20062;-68
2022/05/24 01:40:58;;;;;;;3.13;1.00;;;;;;;;;;5111642;28;20051;-68
2022/05/24 01:43:26;;;;;;;2.67;1.05;;;;;;;;;;5108037;28;20059;-68
2022/05/24 01:45:53;;;;;;;2.53;1.30;;;;;;;;;;5102589;28;20015;-68
2022/05/24 01:48:20;;;;;;;6.22;1.40;;;;;;;;;;5104360;28;20027;-68
2022/05/24 01:50:46;;;;;;;2.78;1.52;;;;;;;;;;5107667;28;20039;-68
2022/05/24 01:53:16;;;;;;;4.70;1.65;;;;;;;;;;5106172;28;20031;-68
2022/05/24 01:55:51;;;;;;;5.13;1.40;;;;;;;;;;5106722;28;20035;-68
2022/05/24 01:58:17;;;;;;;2.38;1.20;;;;;;;;;;5108396;28;20096;-68
2022/05/24 02:00:47;;;;;;;7.82;1.42;;;;;;;;;;5101998;28;20107;-68
2022/05/24 02:03:12;;;;;;;2.90;1.25;;;;;;;;;;5108080;28;20036;-68
2022/05/24 02:05:39;;;;;;;4.28;1.20;;;;;;;;;;5110838;28;20424;-68
2022/05/24 02:08:09;;;;;;;2.70;1.20;;;;;;;;;;5111251;28;20024;-68
2022/05/24 02:10:43;;;;;;;2.60;1.27;;;;;;;;;;5113449;28;20030;-68
2022/05/24 02:13:09;;;;;;;2.78;1.42;;;;;;;;;;5096279;28;20055;-68
2022/05/24 02:15:36;;;;;;;5.15;1.02;;;;;;;;;;5101655;28;20044;-68
2022/05/24 02:18:07;;;;;;;3.90;1.35;;;;;;;;;;5104079;28;20012;-68
2022/05/24 02:20:33;;;;;;;3.08;1.02;;;;;;;;;;5103353;28;20055;-68
2022/05/24 02:22:59;;;;;;;2.92;1.48;;;;;;;;;;5102275;28;20032;-68
2022/05/24 02:25:39;;;;;;;5.80;1.25;;;;;;;;;;5090416;28;20024;-68
2022/05/24 02:28:08;;;;;;;3.88;1.20;;;;;;;;;;5107060;28;20375;-68
2022/05/24 02:30:34;;;;;;;3.55;0.93;;;;;;;;;;5106454;28;20024;-68
2022/05/24 02:32:59;;;;;;;7.25;1.10;;;;;;;;;;5087858;28;20030;-68
2022/05/24 02:35:24;;;;;;;2.10;1.20;;;;;;;;;;5105934;28;20073;-68
2022/05/24 02:37:50;;;;;;;2.97;1.05;;;;;;;;;;5105299;28;20027;-68
2022/05/24 02:42:59;;;;;;;;;;;;;;;;;;5108881;28;20039;-68
2022/05/24 02:45:25;;;;;;;1.80;1.10;;;;;;;;;;5104856;28;19908;-68
2022/05/24 02:47:50;;;;;;;2.00;1.00;;;;;;;;;;5102882;28;20031;-68
2022/05/24 02:50:16;;;;;;;2.92;1.20;;;;;;;;;;5111807;28;20019;-68
2022/05/24 02:52:41;;;;;;;2.17;1.17;;;;;;;;;;5106674;28;20016;-68
2022/05/24 02:55:08;;;;;;;2.15;1.15;;;;;;;;;;5102524;28;20404;-68
2022/05/24 02:57:33;;;;;;;5.18;1.05;;;;;;;;;;5103507;28;20028;-68
2022/05/24 02:59:59;;;;;;;3.13;1.52;;;;;;;;;;5107185;28;20016;-68
2022/05/24 03:02:24;;;;;;;4.15;1.13;;;;;;;;;;5109863;28;20038;-68
2022/05/24 03:04:49;;;;;;;2.40;0.93;;;;;;;;;;5106318;28;20023;-68
2022/05/24 03:09:58;;;;;;;3.72;1.13;;;;;;;;;;5113934;28;20096;-68
2022/05/24 03:15:07;;;;;;;2.72;1.20;;;;;;;;;;5103852;28;20092;-68
2022/05/24 03:17:32;;;;;;;3.90;1.08;;;;;;;;;;5109781;28;20027;-68
2022/05/24 03:19:58;;;;;;;5.28;1.10;;;;;;;;;;5111834;28;20023;-67
2022/05/24 03:22:23;;;;;;;3.22;0.98;;;;;;;;;;5105789;28;20048;-68
2022/05/24 03:24:48;;;;;;;2.83;1.10;;;;;;;;;;5111851;28;20019;-68
2022/05/24 03:27:13;;;;;;;2.88;1.10;;;;;;;;;;5101662;28;20032;-68
2022/05/24 03:29:40;;;;;;;2.25;1.02;;;;;;;;;;5105490;28;20382;-68
2022/05/24 03:32:06;;;;;;;3.70;1.20;;;;;;;;;;5106939;28;20030;-68
2022/05/24 03:34:31;;;;;;;4.55;1.17;;;;;;;;;;5101328;28;20031;-68
2022/05/24 03:36:56;;;;;;;3.00;1.10;;;;;;;;;;5111180;28;20391;-68
2022/05/24 03:39:21;;;;;;;5.10;1.08;;;;;;;;;;5105162;28;20471;-68
2022/05/24 03:41:47;;;;;;;2.92;1.10;;;;;;;;;;5102493;28;20031;-68
2022/05/24 03:44:12;;;;;;;5.60;1.30;;;;;;;;;;5105500;28;20019;-68
2022/05/24 03:46:38;;;;;;;2.55;1.20;;;;;;;;;;5110852;28;20429;-68
2022/05/24 03:49:03;;;;;;;3.58;1.10;;;;;;;;;;5103378;28;20020;-68
2022/05/24 03:51:29;;;;;;;2.45;1.38;;;;;;;;;;5110939;28;20579;-68
2022/05/24 03:53:54;;;;;;;3.42;1.20;;;;;;;;;;5102720;28;20099;-68
2022/05/24 03:56:19;;;;;;;2.80;1.20;;;;;;;;;;5104928;28;20123;-68
2022/05/24 03:58:44;;;;;;;6.30;1.42;;;;;;;;;;5108612;28;20051;-68
2022/05/24 04:01:10;;;;;;;5.65;1.20;;;;;;;;;;5105638;28;20043;-68
2022/05/24 04:03:36;;;;;;;4.55;1.10;;;;;;;;;;5113240;28;20077;-68
2022/05/24 04:06:01;;;;;;;3.47;1.35;;;;;;;;;;5103931;28;20024;-68
2022/05/24 04:08:27;;;;;;;3.88;1.45;;;;;;;;;;5110035;28;20028;-68
2022/05/24 04:11:02;;;;;;;5.78;1.20;;;;;;;;;;5112249;28;20023;-68
2022/05/24 04:13:28;;;;;;;5.00;1.30;;;;;;;;;;5101675;28;20030;-68
2022/05/24 04:15:53;;;;;;;2.72;1.10;;;;;;;;;;5105084;28;20032;-68
2022/05/24 04:18:18;;;;;;;2.72;1.10;;;;;;;;;;5106636;28;20016;-68
2022/05/24 04:20:43;;;;;;;3.95;1.55;;;;;;;;;;5107226;28;20043;-68
2022/05/24 04:23:12;;;;;;;7.00;2.20;;;;;;;;;;5101469;28;20036;-68
2022/05/24 04:25:38;;;;;;;2.72;1.40;;;;;;;;;;5106785;28;20023;-68
2022/05/24 04:28:03;;;;;;;8.82;1.30;;;;;;;;;;5103570;28;20024;-68
2022/05/24 04:30:29;;;;;;;2.72;1.42;;;;;;;;;;5108197;28;20540;-68
2022/05/24 04:32:54;;;;;;;6.10;1.40;;;;;;;;;;5107348;28;20016;-68
2022/05/24 04:35:19;;;;;;;4.85;1.13;;;;;;;;;;5109009;28;20035;-68
2022/05/24 04:37:45;;;;;;;4.45;1.23;;;;;;;;;;5105380;28;20032;-68
2022/05/24 04:40:10;;;;;;;3.58;1.27;;;;;;;;;;5113772;28;20019;-68
2022/05/24 04:42:36;;;;;;;2.42;1.48;;;;;;;;;;5104750;28;20505;-68
2022/05/24 04:45:06;;;;;;;3.20;1.23;;;;;;;;;;5107479;28;20143;-68
2022/05/24 04:47:31;;;;;;;3.90;1.40;;;;;;;;;;5102949;28;20016;-68
2022/05/24 04:49:59;;;;;;;6.25;1.42;;;;;;;;;;5108936;28;20022;-68
2022/05/24 04:52:26;;;;;;;3.25;1.60;;;;;;;;;;5110048;28;20039;-68
2022/05/24 04:54:52;;;;;;;3.63;1.67;;;;;;;;;;5105186;28;20425;-68
2022/05/24 04:57:17;;;;;;;4.80;1.70;;;;;;;;;;5103922;28;20064;-68
2022/05/24 04:59:43;;;;;;;5.45;1.60;;;;;;;;;;5100308;28;20032;-68
2022/05/24 05:02:09;;;;;;;5.85;1.58;;;;;;;;;;5110157;28;20068;-68
2022/05/24 05:04:34;;;;;;;5.75;1.67;;;;;;;;;;5104905;28;20019;-68
2022/05/24 05:06:59;;;;;;;4.28;2.10;;;;;;;;;;5111287;28;20059;-68
2022/05/24 05:09:25;;;;;;;4.88;1.50;;;;;;;;;;5111816;28;20020;-68
2022/05/24 05:11:50;;;;;;;3.50;1.70;;;;;;;;;;5106982;28;20031;-68
2022/05/24 05:14:15;;;;;;;9.27;1.85;;;;;;;;;;5107607;28;20028;-68
2022/05/24 05:16:40;;;;;;;5.50;1.50;;;;;;;;;;5100136;28;20471;-68
2022/05/24 05:19:07;;;;;;;3.83;1.77;;;;;;;;;;5105201;28;20417;-68
2022/05/24 05:21:33;;;;;;;4.75;1.80;;;;;;;;;;5107204;28;20082;-68
2022/05/24 05:23:59;;;;;;;3.72;1.70;;;;;;;;;;5109937;28;20024;-68
2022/05/24 05:26:25;;;;;;;1.92;1.20;;;;;;;;;;5108741;28;20028;-68
2022/05/24 05:28:50;;;;;;;3.85;1.30;;;;;;;;;;5109711;28;20031;-68
2022/05/24 05:31:22;;;;;;;4.07;1.38;;;;;;;;;;5104404;28;20340;-68
2022/05/24 05:33:48;;;;;;;2.60;1.38;;;;;;;;;;5101292;28;20028;-68
2022/05/24 05:36:13;;;;;;;3.58;1.58;;;;;;;;;;5108563;28;20048;-68
2022/05/24 05:38:45;;;;;;;3.33;1.50;;;;;;;;;;5100877;28;20016;-68
2022/05/24 05:41:10;;;;;;;3.88;1.58;;;;;;;;;;5106671;28;20390;-68
2022/05/24 05:43:36;;;;;;;4.65;1.40;;;;;;;;;;5098536;28;20108;-68
2022/05/24 05:46:03;;;;;;;2.33;1.23;;;;;;;;;;5107615;28;20038;-68
2022/05/24 05:48:29;;;;;;;2.40;1.20;;;;;;;;;;5099031;28;20361;-68
2022/05/24 05:50:54;;;;;;;5.82;1.38;;;;;;;;;;5112262;28;20076;-68
2022/05/24 05:53:20;;;;;;;3.80;1.10;;;;;;;;;;5102761;28;20026;-68
2022/05/24 05:55:45;;;;;;;5.57;1.50;;;;;;;;;;5109491;28;20039;-68
2022/05/24 05:58:11;;;;;;;2.58;1.35;;;;;;;;;;5102770;28;20027;-68
2022/05/24 06:00:37;;;;;;;3.03;1.20;;;;;;;;;;5106658;28;20026;-68
2022/05/24 06:03:02;;;;;;;2.05;1.20;;;;;;;;;;5108406;28;20027;-68
2022/05/24 06:05:27;;;;;;;1.88;0.98;;;;;;;;;;5104187;28;20031;-68
2022/05/24 06:07:53;;;;;;;4.78;1.35;;;;;;;;;;5105206;28;20016;-69
2022/05/24 06:10:19;;;;;;;4.45;1.23;;;;;;;;;;5101451;28;20106;-68
2022/05/24 06:12:44;;;;;;;5.20;1.10;;;;;;;;;;5105427;28;20106;-68
2022/05/24 06:15:09;;;;;;;2.33;1.20;;;;;;;;;;5101770;28;20040;-68
2022/05/24 06:17:48;;;;;;;2.00;1.17;;;;;;;;;;5102280;28;20032;-68
2022/05/24 06:20:14;;;;;;;2.20;1.00;;;;;;;;;;5105224;28;20027;-68
2022/05/24 06:22:39;;;;;;;2.67;1.10;;;;;;;;;;5111824;28;20343;-69
2022/05/24 06:25:05;;;;;;;2.83;1.10;;;;;;;;;;5105436;28;20089;-68
2022/05/24 06:27:30;;;;;;;2.10;0.90;;;;;;;;;;5112054;28;20020;-68
2022/05/24 06:29:55;;;;;;;2.55;0.95;;;;;;;;;;5113001;28;20108;-69
2022/05/24 06:32:21;;;;;;;2.22;1.00;;;;;;;;;;5108510;28;20028;-68
2022/05/24 06:34:48;;;;;;;2.88;1.10;;;;;;;;;;5105940;28;20036;-68
2022/05/24 06:37:14;;;;;;;1.48;0.80;;;;;;;;;;5084682;28;20075;-68
2022/05/24 06:39:40;;;;;;;2.67;1.08;;;;;;;;;;5116888;28;20035;-68
2022/05/24 06:42:05;;;;;;;1.77;0.90;;;;;;;;;;5120276;28;20223;-68
2022/05/24 06:44:30;;;;;;;1.95;0.90;;;;;;;;;;5120284;28;20448;-68
2022/05/24 06:46:55;;;;;;;3.00;1.00;;;;;;;;;;5112566;28;20074;-68
2022/05/24 06:49:21;;;;;;;3.40;0.88;;;;;;;;;;5108058;28;20678;-68
2022/05/24 06:51:46;;;;;;;1.67;0.80;;;;;;;;;;5115578;28;20060;-68
2022/05/24 06:54:11;;;;;;;2.42;1.00;;;;;;;;;;5114184;28;20101;-69
2022/05/24 06:56:36;;;;;;;3.00;0.73;;;;;;;;;;5117137;28;20036;-68
2022/05/24 07:04:29;;;;;;;2.08;0.90;;;;;;;;;;5108133;28;20505;-68
2022/05/24 07:06:55;;;;;;;2.25;0.90;;;;;;;;;;5113370;28;20036;-68
2022/05/24 07:09:20;;;;;;;2.20;0.85;;;;;;;;;;5098331;28;20492;-70
2022/05/24 07:11:45;;;;;;;2.03;0.80;;;;;;;;;;5105969;28;20075;-70
2022/05/24 07:14:11;;;;;;;1.85;0.77;;;;;;;;;;5101170;28;20049;-69
2022/05/24 07:16:36;;;;;;;3.13;0.68;;;;;;;;;;5107181;28;20482;-69
2022/05/24 07:19:01;;;;;;;4.78;0.90;;;;;;;;;;5109722;28;20016;-69
2022/05/24 07:21:26;;;;;;;2.45;1.13;;;;;;;;;;5109330;28;20044;-69
2022/05/24 07:23:51;;;;;;;2.67;0.90;;;;;;;;;;5110106;28;20038;-69
2022/05/24 07:26:18;;;;;;;1.67;0.82;;;;;;;;;;5104284;28;20024;-68
2022/05/24 07:28:47;;;;;;;5.38;1.10;;;;;;;;;;5105289;28;20394;-69
2022/05/24 07:31:12;;;;;;;2.88;0.85;;;;;;;;;;5115617;28;20028;-69
2022/05/24 07:33:38;;;;;;;1.73;0.90;;;;;;;;;;5108278;28;20073;-69
2022/05/24 07:36:04;;;;;;;4.65;1.00;;;;;;;;;;5112024;28;20056;-69
2022/05/24 07:38:29;;;;;;;3.88;0.82;;;;;;;;;;5115250;28;20038;-69
2022/05/24 07:46:23;;;;;;;2.13;0.93;;;;;;;;;;5112886;28;20088;-67
2022/05/24 07:48:48;;;;;;;2.80;0.80;;;;;;;;;;5113074;28;20023;-66
2022/05/24 07:51:13;;;;;;;2.77;0.83;;;;;;;;;;5103643;28;20047;-66
2022/05/24 07:53:38;;;;;;;1.55;0.60;;;;;;;;;;5110326;28;20256;-69
2022/05/24 07:56:04;;;;;;;2.10;0.80;;;;;;;;;;5107070;28;20131;-69
2022/05/24 07:58:30;;;;;;;1.08;0.60;;;;;;;;;;5097037;28;20102;-68
2022/05/24 08:00:55;;;;;;;1.95;0.80;;;;;;;;;;5115371;28;20019;-69
2022/05/24 08:03:21;;;;;;;2.00;0.80;;;;;;;;;;5111462;28;20039;-68
2022/05/24 08:05:46;;;;;;;3.55;0.90;;;;;;;;;;5115627;28;20032;-68
2022/05/24 08:08:11;;;;;;;2.08;0.80;;;;;;;;;;5102478;28;20069;-69
2022/05/24 08:10:38;;;;;;;1.48;0.77;;;;;;;;;;5115603;28;20036;-69
2022/05/24 08:13:05;;;;;;;2.80;0.77;;;;;;;;;;5115594;28;20173;-69
2022/05/24 08:15:31;;;;;;;1.85;1.10;;;;;;;;;;5107683;28;20040;-69
2022/05/24 08:17:57;;;;;;;4.07;0.70;;;;;;;;;;5112571;28;20092;-69
2022/05/24 08:20:22;;;;;;;1.67;0.95;;;;;;;;;;5115609;28;20024;-69
2022/05/24 08:22:47;;;;;;;2.17;1.10;;;;;;;;;;5115298;28;20378;-69
2022/05/24 08:25:13;;;;;;;3.05;0.90;;;;;;;;;;5102989;28;20088;-69
2022/05/24 08:27:38;;;;;;;2.53;0.93;;;;;;;;;;5113161;28;20046;-69
2022/05/24 08:30:06;;;;;;;1.42;0.82;;;;;;;;;;5104339;28;20353;-70
2022/05/24 08:32:32;;;;;;;1.75;0.93;;;;;;;;;;5105186;28;20037;-69
2022/05/24 08:34:57;;;;;;;3.03;0.98;;;;;;;;;;5106730;28;20106;-70
2022/05/24 08:37:22;;;;;;;3.13;0.98;;;;;;;;;;5104922;28;20039;-69
2022/05/24 08:39:48;;;;;;;3.25;0.70;;;;;;;;;;5098950;28;20036;-69
2022/05/24 08:42:22;;;;;;;1.92;0.60;;;;;;;;;;5110170;28;20042;-69
2022/05/24 08:50:23;;;;;;;2.00;1.10;;;;;;;;;;5103022;28;20027;-70
2022/05/24 08:52:50;;;;;;;2.08;0.90;;;;;;;;;;5110664;28;20032;-70
2022/05/24 08:55:16;;;;;;;1.95;0.80;;;;;;;;;;5108359;28;20451;-70
2022/05/24 08:57:50;;;;;;;2.90;1.00;;;;;;;;;;5090466;28;20024;-70
2022/05/24 09:00:17;;;;;;;1.13;0.65;;;;;;;;;;5098504;28;20036;-70
2022/05/24 09:02:45;;;;;;;2.63;0.50;;;;;;;;;;5098139;28;20067;-70
2022/05/24 09:05:19;;;;;;;2.17;0.75;;;;;;;;;;5098765;28;20036;-70
2022/05/24 09:07:53;;;;;;;1.65;0.90;;;;;;;;;;5096406;28;20102;-70
2022/05/24 09:10:23;;;;;;;1.50;0.95;;;;;;;;;;5097753;28;20040;-70
2022/05/24 09:12:49;;;;;;;1.92;1.02;;;;;;;;;;5097352;28;20092;-70
2022/05/24 09:15:14;;;;;;;1.98;0.95;;;;;;;;;;5110279;28;20031;-70
2022/05/24 09:18:06;;;;;;;1.27;0.70;;;;;;;;;;5097991;28;20412;-71
2022/05/24 09:20:34;;;;;;;2.15;0.90;;;;;;;;;;5069979;28;20261;-67
2022/05/24 09:23:09;;;;;;;2.45;0.73;;;;;;;;;;5101783;28;20032;-67
2022/05/24 09:25:34;;;;;;;1.65;0.80;;;;;;;;;;5102066;28;20038;-70
2022/05/24 09:27:59;;;;;;;1.95;0.60;;;;;;;;;;5104956;28;20031;-70
2022/05/24 09:30:25;;;;;;;1.52;0.73;;;;;;;;;;5103238;28;20015;-69
2022/05/24 09:32:50;;;;;;;1.85;0.60;;;;;;;;;;5100512;28;20068;-69
2022/05/24 09:35:15;;;;;;;1.52;0.50;;;;;;;;;;5106324;28;20048;-69
2022/05/24 09:37:43;;;;;;;1.70;0.63;;;;;;;;;;5104307;28;20027;-69
2022/05/24 09:40:22;;;;;;;3.55;0.65;;;;;;;;;;5094044;28;20724;-69
2022/05/24 09:42:48;;;;;;;1.40;0.65;;;;;;;;;;5100800;28;20103;-68
2022/05/24 09:45:18;;;;;;;1.90;0.60;;;;;;;;;;5099021;28;20115;-68
2022/05/24 09:47:43;;;;;;;1.55;0.60;;;;;;;;;;5104312;28;20038;-68
2022/05/24 09:50:14;;;;;;;0.90;0.73;;;;;;;;;;5099599;28;20031;-69
2022/05/24 09:52:39;;;;;;;1.92;0.80;;;;;;;;;;5098284;28;20363;-69
2022/05/24 09:55:05;;;;;;;1.33;0.70;;;;;;;;;;5108205;28;20110;-69
2022/05/24 09:57:32;;;;;;;0.95;0.70;;;;;;;;;;5109235;28;20020;-69
2022/05/24 10:00:15;;;;;;;1.70;1.05;;;;;;;;;;5096772;28;20126;-70
2022/05/24 10:02:42;;;;;;;2.07;0.80;;;;;;;;;;5097462;28;20035;-69
2022/05/24 10:05:21;;;;;;;1.42;0.50;;;;;;;;;;5100164;28;20059;-69
2022/05/24 10:07:58;;;;;;;1.33;0.80;;;;;;;;;;5104810;28;20042;-69
2022/05/24 10:10:26;;;;;;;1.05;0.60;;;;;;;;;;5108939;28;20020;-69
2022/05/24 10:13:04;;;;;;;0.73;0.45;;;;;;;;;;5108482;28;20044;-69
2022/05/24 10:15:33;;;;;;;3.30;0.60;;;;;;;;;;5099939;28;20463;-69
2022/05/24 10:18:01;;;;;;;1.65;0.50;;;;;;;;;;5101276;28;20032;-69
2022/05/24 10:20:46;;;;;;;0.52;0.45;;;;;;;;;;5102002;28;20085;-68
2022/05/24 10:23:30;;;;;;;1.42;0.50;;;;;;;;;;5107284;28;20036;-69
2022/05/24 10:26:01;;;;;;;2.30;0.57;;;;;;;;;;5108348;28;20045;-69
2022/05/24 10:28:43;;;;;;;1.88;0.50;;;;;;;;;;5097048;28;20391;-69
2022/05/24 10:31:13;;;;;;;1.52;0.50;;;;;;;;;;5109401;28;20466;-68
2022/05/24 10:39:11;;;;;;;0.98;0.70;;;;;;;;;;5108694;28;20050;-68
2022/05/24 10:42:14;;;;;;;1.95;0.80;;;;;;;;;;5101628;28;20031;-68
2022/05/24 10:44:45;;;;;;;0.90;0.50;;;;;;;;;;5004111;28;20034;-68
2022/05/24 10:47:20;;;;;;;0.45;0.45;;;;;;;;;;4999127;28;20046;-68
2022/05/24 10:49:56;;;;;;;1.30;0.98;;;;;;;;;;5053663;28;20044;-68
2022/05/24 10:52:21;;;;;;;0.90;0.50;;;;;;;;;;5099481;28;20542;-69
2022/05/24 10:54:47;;;;;;;1.48;0.50;;;;;;;;;;5102385;28;20090;-68
2022/05/24 10:57:14;;;;;;;3.58;0.40;;;;;;;;;;5104177;28;20128;-68
2022/05/24 10:59:45;;;;;;;2.00;0.63;;;;;;;;;;5098619;28;20020;-68
2022/05/24 11:02:23;;;;;;;3.67;0.70;;;;;;;;;;5104952;28;20039;-68
2022/05/24 11:05:01;;;;;;;0.80;0.50;;;;;;;;;;5106249;28;20493;-68
2022/05/24 11:07:27;;;;;;;2.03;0.95;;;;;;;;;;5103012;28;20449;-68
2022/05/24 11:10:16;;;;;;;1.30;0.70;;;;;;;;;;5098791;28;20071;-68
2022/05/24 11:12:47;;;;;;;0.95;0.50;;;;;;;;;;5087935;28;20032;-69
2022/05/24 11:15:16;;;;;;;1.05;0.50;;;;;;;;;;5090532;28;20035;-69
2022/05/24 11:17:42;;;;;;;0.70;0.50;;;;;;;;;;5103758;28;20032;-68
2022/05/24 11:20:08;;;;;;;1.10;0.60;;;;;;;;;;5101071;28;20384;-69
2022/05/24 11:22:38;;;;;;;2.58;0.60;;;;;;;;;;5102245;28;20741;-68
2022/05/24 11:25:11;;;;;;;0.82;0.55;;;;;;;;;;5107918;28;20096;-68
2022/05/24 11:27:36;;;;;;;1.88;0.80;;;;;;;;;;5112229;28;20096;-68
2022/05/24 11:30:13;;;;;;;1.42;0.68;;;;;;;;;;5104313;28;20019;-68
2022/05/24 11:32:44;;;;;;;0.98;0.50;;;;;;;;;;5103016;28;20020;-68
2022/05/24 11:35:23;;;;;;;1.95;0.50;;;;;;;;;;5102309;28;20032;-69
2022/05/24 11:37:55;;;;;;;0.68;0.50;;;;;;;;;;5097260;28;20468;-68
2022/05/24 11:40:50;;;;;;;1.17;0.47;;;;;;;;;;5106662;28;20039;-68
2022/05/24 11:43:34;;;;;;;0.47;0.40;;;;;;;;;;5086084;28;20036;-69
2022/05/24 11:46:04;;;;;;;0.85;0.55;;;;;;;;;;5106392;28;20501;-68
2022/05/24 11:48:38;;;;;;;2.30;0.50;;;;;;;;;;5109017;28;20098;-68
2022/05/24 11:51:29;;;;;;;1.17;0.40;;;;;;;;;;5108513;28;20035;-68
2022/05/24 11:53:54;;;;;;;0.88;0.50;;;;;;;;;;5072997;28;20124;-68
2022/05/24 11:56:21;;;;;;;1.45;0.73;;;;;;;;;;5107470;28;20024;-69
2022/05/24 11:58:48;;;;;;;1.05;0.80;;;;;;;;;;5095890;28;20044;-68
2022/05/24 12:01:16;;;;;;;0.50;0.50;;;;;;;;;;5090520;28;20035;-68
2022/05/24 12:09:54;;;;;;;1.75;0.50;;;;;;;;;;5094189;28;20031;-68
2022/05/24 12:12:21;;;;;;;1.00;0.60;;;;;;;;;;5099652;28;20024;-68
2022/05/24 12:14:47;;;;;;;0.77;0.57;;;;;;;;;;5101985;28;20229;-69
2022/05/24 12:17:12;;;;;;;1.67;0.60;;;;;;;;;;5098620;28;20050;-68
2022/05/24 12:19:38;;;;;;;3.90;1.58;;;;;;;;;;5095535;28;20481;-68
2022/05/24 12:22:03;;;;;;;1.48;0.60;;;;;;;;;;5105952;28;20081;-68
2022/05/24 12:24:28;;;;;;;1.05;0.60;;;;;;;;;;5095351;28;20433;-68
2022/05/24 12:27:08;;;;;;;1.27;0.60;;;;;;;;;;5093831;28;20097;-68
2022/05/24 12:29:33;;;;;;;2.28;0.60;;;;;;;;;;5095866;28;20036;-68
2022/05/24 12:32:02;;;;;;;3.65;0.60;;;;;;;;;;5110051;28;20847;-69
2022/05/24 12:34:29;;;;;;;1.10;0.60;;;;;;;;;;5101934;28;20027;-68
2022/05/24 12:36:55;;;;;;;1.42;0.70;;;;;;;;;;5101868;28;20058;-69
2022/05/24 12:39:25;;;;;;;1.35;0.60;;;;;;;;;;5103773;28;20035;-68
2022/05/24 12:41:55;;;;;;;0.75;0.52;;;;;;;;;;5109417;28;20052;-68
2022/05/24 12:44:30;;;;;;;1.33;0.50;;;;;;;;;;5099210;28;20780;-68
2022/05/24 12:46:55;;;;;;;1.00;0.52;;;;;;;;;;5098407;28;20486;-68
2022/05/24 12:49:22;;;;;;;4.28;0.73;;;;;;;;;;5095969;28;20047;-69
2022/05/24 12:51:48;;;;;;;5.03;0.70;;;;;;;;;;5101873;28;20398;-68
2022/05/24 12:54:13;;;;;;;0.63;0.47;;;;;;;;;;5096083;28;20024;-68
2022/05/24 12:56:38;;;;;;;0.57;0.45;;;;;;;;;;5097317;28;20031;-68
2022/05/24 12:59:11;;;;;;;1.65;0.50;;;;;;;;;;5105279;28;20028;-68
2022/05/24 13:01:40;;;;;;;1.38;0.60;;;;;;;;;;5102869;28;20055;-68
2022/05/24 13:04:09;;;;;;;0.95;0.70;;;;;;;;;;5098055;28;20034;-68
2022/05/24 13:06:35;;;;;;;1.15;0.55;;;;;;;;;;5101198;28;20138;-68
2022/05/24 13:09:13;;;;;;;1.33;0.60;;;;;;;;;;5092868;28;20012;-69
2022/05/24 13:11:39;;;;;;;3.00;0.68;;;;;;;;;;5092334;28;20030;-69
2022/05/24 13:14:04;;;;;;;1.08;0.45;;;;;;;;;;5100432;28;20019;-68
2022/05/24 13:16:31;;;;;;;2.63;0.40;;;;;;;;;;5096449;28;20475;-69
2022/05/24 13:18:56;;;;;;;0.60;0.45;;;;;;;;;;5084009;28;20035;-69
2022/05/24 13:21:22;;;;;;;0.65;0.40;;;;;;;;;;5106559;28;20042;-68
2022/05/24 13:23:48;;;;;;;0.60;0.40;;;;;;;;;;5094050;28;20052;-68
2022/05/24 13:26:14;;;;;;;3.83;0.52;;;;;;;;;;5105043;28;20129;-69
2022/05/24 13:28:39;;;;;;;1.75;0.40;;;;;;;;;;5100212;28;20447;-68
2022/05/24 13:33:53;;;;;;;1.25;0.47;;;;;;;;;;5096041;28;20509;-68
2022/05/24 13:36:24;;;;;;;1.75;0.50;;;;;;;;;;5096159;28;20125;-68
2022/05/24 13:39:01;;;;;;;1.25;0.75;;;;;;;;;;5098370;28;20467;-69
2022/05/24 13:41:30;;;;;;;3.78;0.68;;;;;;;;;;5099203;28;20020;-68
2022/05/24 13:44:09;;;;;;;0.85;0.50;;;;;;;;;;5097835;28;20077;-69
2022/05/24 13:46:54;;;;;;;1.85;0.60;;;;;;;;;;5097703;28;20028;-69
2022/05/24 13:49:28;;;;;;;1.58;0.50;;;;;;;;;;5094424;28;20077;-69
2022/05/24 13:51:53;;;;;;;0.57;0.50;;;;;;;;;;5097635;28;20028;-69
2022/05/24 13:54:32;;;;;;;2.20;0.57;;;;;;;;;;5097284;28;20051;-69
2022/05/24 13:56:57;;;;;;;3.13;0.45;;;;;;;;;;5095915;28;20039;-68
2022/05/24 13:59:23;;;;;;;1.48;0.38;;;;;;;;;;5076286;28;20035;-68
2022/05/24 14:02:08;;;;;;;1.52;0.40;;;;;;;;;;5101994;28;20043;-68
2022/05/24 14:04:37;;;;;;;0.73;0.45;;;;;;;;;;5103013;28;20390;-68
2022/05/24 14:07:06;;;;;;;0.70;0.50;;;;;;;;;;5106526;28;20459;-68
2022/05/24 14:09:33;;;;;;;2.30;0.50;;;;;;;;;;5099969;28;20024;-68
2022/05/24 14:12:00;;;;;;;2.15;0.43;;;;;;;;;;5094872;28;20841;-69
2022/05/24 14:14:27;;;;;;;0.93;0.50;;;;;;;;;;5109509;28;20023;-68
2022/05/24 14:16:54;;;;;;;1.25;0.50;;;;;;;;;;5109038;28;20016;-68
2022/05/24 14:19:21;;;;;;;0.52;0.40;;;;;;;;;;5107889;28;20024;-68
2022/05/24 14:21:48;;;;;;;0.75;0.50;;;;;;;;;;5098100;28;20110;-68
2022/05/24 14:24:16;;;;;;;2.17;0.60;;;;;;;;;;5106382;28;20049;-69
2022/05/24 14:26:42;;;;;;;3.28;1.15;;;;;;;;;;5098230;28;20118;-69
2022/05/24 14:29:08;;;;;;;0.57;0.47;;;;;;;;;;5098277;28;20126;-69
2022/05/24 14:31:33;;;;;;;2.00;0.77;;;;;;;;;;5107353;28;20137;-68
2022/05/24 14:33:58;;;;;;;0.88;0.50;;;;;;;;;;5092403;28;20059;-68
2022/05/24 14:36:24;;;;;;;1.08;0.60;;;;;;;;;;5099674;28;20110;-68
2022/05/24 14:38:49;;;;;;;4.53;0.60;;;;;;;;;;5098361;28;20020;-68
2022/05/24 14:41:17;;;;;;;1.98;0.50;;;;;;;;;;5098651;28;20028;-69
2022/05/24 14:43:46;;;;;;;0.40;0.40;;;;;;;;;;5100221;28;20052;-68
2022/05/24 14:46:12;;;;;;;1.20;0.50;;;;;;;;;;5103951;28;20048;-69
2022/05/24 14:48:37;;;;;;;1.15;0.55;;;;;;;;;;5103247;28;20086;-68
2022/05/24 14:51:04;;;;;;;0.52;0.50;;;;;;;;;;5094250;28;20467;-68
2022/05/24 14:53:31;;;;;;;0.43;0.40;;;;;;;;;;5104607;28;20080;-68
2022/05/24 14:55:56;;;;;;;4.22;0.60;;;;;;;;;;5102592;28;20039;-68
2022/05/24 14:58:22;;;;;;;4.45;0.50;;;;;;;;;;5107136;28;20027;-68
2022/05/24 15:00:47;;;;;;;2.22;0.50;;;;;;;;;;5103892;28;20008;-68
2022/05/24 15:03:12;;;;;;;0.65;0.50;;;;;;;;;;5104415;28;20023;-68
2022/05/24 15:05:39;;;;;;;1.90;0.43;;;;;;;;;;5107965;28;20526;-68
2022/05/24 15:16:30;;;;;;;;;;;;;;;;;;5102123;28;20093;-68
2022/05/24 15:18:55;;;;;;;0.52;0.50;;;;;;;;;;5091666;28;19923;-68
2022/05/24 15:21:22;;;;;;;1.45;0.70;;;;;;;;;;5109858;28;20027;-68
2022/05/24 15:23:50;;;;;;;0.75;0.50;;;;;;;;;;5115807;28;20023;-68
2022/05/24 15:26:18;;;;;;;1.35;0.50;;;;;;;;;;5115645;28;20429;-69
2022/05/24 15:28:44;;;;;;;0.93;0.52;;;;;;;;;;5100719;28;20436;-68
2022/05/24 15:31:10;;;;;;;4.47;0.50;;;;;;;;;;5104494;28;20016;-68
2022/05/24 15:33:36;;;;;;;1.23;0.52;;;;;;;;;;5102859;28;20011;-68
2022/05/24 15:36:02;;;;;;;1.05;0.55;;;;;;;;;;5100617;28;20101;-68
2022/05/24 15:38:27;;;;;;;0.57;0.40;;;;;;;;;;5104659;28;20019;-68
2022/05/24 15:40:54;;;;;;;0.80;0.50;;;;;;;;;;5107448;28;20020;-68